Aeroporto :
LOGIN :

Iscrizione | Disclaimer

   EN    FR    IT 

 










Sommario :    VFR   VFR Marginale   IFR   IFR Intensivo   IFR Molto Intensivo
Visibilità : 
Base nubi : 
>= 8 km
>= 3000ft
5 / 8 km
1000 / 3000 ft
1500m / 5 km
500 / 1000 ft
800 / 1500m
200 / 500 ft
< 800m
< 200 ft
Simboli :   Temporali  Nebbia  Neve Forte  Precipitazioni Forti  Vento > 20 kt
SIGMETs :   Varie  Temporali  Ghiacco  Turbolenza  Onda orograficha  Ceneri Vulcaniche







- Altitudine del aeroporto : 265 ft
- Codice IATA : BJY


LYBT - Batajnica Air Base

ULTIMO METAR :
  • 241100Z 07008KT 330V130 CAVOK 32/15 Q1019 NOSIG

METARs OBSOLETI :
  • 241030Z 06009KT 030V100 CAVOK 32/15 Q1019 NOSIG
  • 241000Z 07006KT 020V130 CAVOK 32/16 Q1020 NOSIG
  • 240930Z 08007KT 030V110 CAVOK 31/16 Q1020 NOSIG
  • 240900Z 08007KT 030V130 CAVOK 31/15 Q1020 NOSIG
  • 240830Z 09006KT 030V130 CAVOK 29/16 Q1020 NOSIG

TAF TAF LYBT
Valido dal 24 a 06 ore il 25 a 06 ore UTC


240500Z 2406/2506 10012KT CAVOK TX33/2414Z TN19/2504Z
Nessun NOTAM noto per questo aeroporto.



MetMap, La meteo Aeronautica in un colpo d'occhio ! - Copyright ORBIFLY Dicembre 2007 - Disclaimer

ORBIFLY MET'MAP TEAM :

Programmazione e sviluppo : Alexandra Zaïnal
Concezione e sviluppo : Baudouin d'Aumeries
Co-Programmazione e sviluppo : Marc-Olivier Méhu
Supporto tecnico e logistico : Manuel Goepfert
Aiuto per la traduzione : Arnaldo La Scala

Contatto : metmap@orbifly.com




FONTI E CREDITI :

   NOAA